Terminal Aerodrome Forecast
Issued by NWS Atlanta, GA

Home | Current Version | Previous Version | Text Only | Print | Product List | Glossary On
Versions: 1 2 3 4 5 6 7 8 9 10 11 12 13 14 15 16 17 18 19 20 21 22 23 24 25 26 27 28 29
743
FTUS42 KFFC 280531
TAFAHN
TAF
KAHN 280531Z 2806/2906 14003KT P6SM FEW060 SCT250
      TEMPO 2809/2812 4SM BR
     FM281700 09006KT P6SM SCT045 SCT250
     FM290000 09004KT P6SM SCT250=

USA.gov is the U.S. government's official web portal to all federal, state and local government web resources and services.